createdAt,value
2018-10-19T00:01:59.217Z,7.80
2018-10-19T00:04:27.820Z,7.80
2018-10-19T00:06:56.455Z,7.80
2018-10-19T00:09:25.153Z,7.80
2018-10-19T00:11:53.749Z,7.70
2018-10-19T00:14:22.354Z,7.80
2018-10-19T00:16:50.912Z,7.80
2018-10-19T00:19:19.575Z,7.80
2018-10-19T00:21:48.799Z,7.80
2018-10-19T00:24:17.448Z,7.80
2018-10-19T00:26:46.746Z,7.80
2018-10-19T00:29:15.365Z,7.70
2018-10-19T00:31:43.957Z,7.70
2018-10-19T00:34:12.516Z,7.70
2018-10-19T00:36:41.136Z,7.70
2018-10-19T00:39:11.321Z,7.80
2018-10-19T00:41:40.066Z,7.70
2018-10-19T00:44:08.669Z,7.60
2018-10-19T00:46:37.244Z,7.50
2018-10-19T00:49:06.989Z,7.40
2018-10-19T00:51:40.067Z,7.30
2018-10-19T00:54:08.875Z,7.30
2018-10-19T00:56:37.750Z,7.30
2018-10-19T00:59:06.443Z,7.20
2018-10-19T01:01:35.078Z,7.20
2018-10-19T01:04:03.633Z,7.10
2018-10-19T01:06:32.299Z,7.10
2018-10-19T01:09:00.920Z,7.10
2018-10-19T01:11:29.518Z,7.10
2018-10-19T01:13:58.124Z,7.00
2018-10-19T01:16:26.820Z,7.00
2018-10-19T01:18:55.541Z,7.00
2018-10-19T01:21:24.209Z,7.00
2018-10-19T01:23:52.826Z,6.90
2018-10-19T01:26:21.413Z,6.90
2018-10-19T01:28:50.127Z,7.00
2018-10-19T01:31:18.828Z,6.90
2018-10-19T01:33:47.457Z,6.90
2018-10-19T01:36:16.064Z,6.90
2018-10-19T01:38:44.688Z,6.80
2018-10-19T01:41:14.074Z,6.80
2018-10-19T01:43:42.673Z,6.80
2018-10-19T01:46:11.255Z,7.00
2018-10-19T01:48:39.782Z,6.80
2018-10-19T01:51:08.400Z,6.70
2018-10-19T01:53:37.137Z,6.70
2018-10-19T01:56:05.790Z,6.60
2018-10-19T01:58:34.365Z,6.60
2018-10-19T02:01:03.001Z,6.60
2018-10-19T02:03:31.594Z,6.50
2018-10-19T02:06:00.209Z,6.50
2018-10-19T02:08:28.852Z,6.50
2018-10-19T02:11:00.264Z,6.50
2018-10-19T02:13:28.972Z,6.50
2018-10-19T02:15:57.549Z,6.50
2018-10-19T02:18:26.187Z,6.50
2018-10-19T02:20:54.780Z,6.50
2018-10-19T02:23:23.401Z,6.40
2018-10-19T02:25:51.985Z,6.40
2018-10-19T02:28:20.687Z,6.20
2018-10-19T02:30:49.298Z,6.30
2018-10-19T02:33:17.894Z,6.30
2018-10-19T02:35:46.484Z,6.40
2018-10-19T02:38:15.033Z,6.50
2018-10-19T02:40:43.634Z,6.40
2018-10-19T02:43:12.371Z,6.30
2018-10-19T02:45:42.765Z,6.30
2018-10-19T02:48:12.106Z,6.20
2018-10-19T02:50:40.736Z,6.10
2018-10-19T02:53:09.295Z,6.10
2018-10-19T02:55:38.007Z,6.10
2018-10-19T02:58:06.609Z,6.00
2018-10-19T03:00:35.189Z,6.00
2018-10-19T03:03:03.801Z,6.00
2018-10-19T03:05:32.375Z,6.00
2018-10-19T03:08:01.112Z,5.90
2018-10-19T03:10:29.829Z,5.90
2018-10-19T03:12:58.490Z,5.80
2018-10-19T03:15:27.117Z,5.80
2018-10-19T03:17:56.427Z,5.80
2018-10-19T03:20:25.016Z,5.90
2018-10-19T03:22:53.767Z,5.90
2018-10-19T03:25:23.047Z,5.90
2018-10-19T03:27:52.374Z,6.00
2018-10-19T03:30:21.140Z,6.00
2018-10-19T03:32:49.743Z,6.10
2018-10-19T03:35:18.338Z,6.00
2018-10-19T03:37:47.041Z,6.10
2018-10-19T03:40:15.665Z,6.10
2018-10-19T03:42:44.221Z,6.00
2018-10-19T03:45:12.888Z,6.10
2018-10-19T03:47:41.480Z,6.10
2018-10-19T03:50:10.743Z,6.10
2018-10-19T03:52:39.297Z,6.40
2018-10-19T03:55:07.945Z,6.30
2018-10-19T03:57:36.663Z,6.30
2018-10-19T04:00:05.418Z,6.30
2018-10-19T04:02:33.948Z,6.40
2018-10-19T04:05:02.633Z,6.40
2018-10-19T04:07:31.346Z,6.50
2018-10-19T04:10:00.070Z,6.60
2018-10-19T04:12:29.371Z,6.70
2018-10-19T04:14:58.009Z,6.70
2018-10-19T04:17:26.601Z,6.70
2018-10-19T04:19:55.271Z,6.70
2018-10-19T04:22:23.976Z,6.70
2018-10-19T04:24:52.696Z,6.60
2018-10-19T04:27:21.622Z,6.60
2018-10-19T04:29:50.581Z,6.70
2018-10-19T04:32:19.235Z,6.70
2018-10-19T04:34:47.883Z,6.70
2018-10-19T04:37:16.562Z,6.70
2018-10-19T04:39:45.538Z,6.70
2018-10-19T04:42:14.216Z,6.70
2018-10-19T04:44:42.842Z,6.70
2018-10-19T04:47:11.718Z,6.70
2018-10-19T04:49:40.203Z,6.70
2018-10-19T04:52:08.852Z,6.70
2018-10-19T04:54:37.483Z,6.60
2018-10-19T04:57:06.710Z,6.70
2018-10-19T04:59:35.319Z,6.70
2018-10-19T05:02:03.986Z,6.60
2018-10-19T05:04:32.631Z,6.60
2018-10-19T05:07:01.519Z,6.50
2018-10-19T05:09:30.117Z,6.50
2018-10-19T05:11:58.918Z,6.60
2018-10-19T05:14:27.550Z,6.60
2018-10-19T05:16:56.375Z,6.60
2018-10-19T05:19:24.914Z,6.50
2018-10-19T05:21:53.599Z,6.50
2018-10-19T05:24:22.151Z,6.60
2018-10-19T05:26:50.754Z,6.60
2018-10-19T05:29:19.415Z,6.60
2018-10-19T05:31:48.140Z,6.60
2018-10-19T05:34:16.938Z,6.70
2018-10-19T05:36:45.598Z,6.70
2018-10-19T05:39:14.305Z,6.60
2018-10-19T05:41:42.993Z,6.60
2018-10-19T05:44:11.761Z,6.60
2018-10-19T05:46:40.464Z,6.60
2018-10-19T05:49:09.245Z,6.50
2018-10-19T05:51:38.076Z,6.50
2018-10-19T05:54:06.842Z,6.40
2018-10-19T05:56:35.725Z,6.50
2018-10-19T05:59:04.886Z,6.40
2018-10-19T06:01:33.762Z,6.40
2018-10-19T06:04:02.499Z,6.40
2018-10-19T06:06:31.210Z,6.30
2018-10-19T06:08:59.936Z,6.40
2018-10-19T06:11:28.798Z,6.40
2018-10-19T06:13:57.813Z,6.50
2018-10-19T06:16:26.653Z,6.50
2018-10-19T06:18:55.459Z,6.50
2018-10-19T06:21:24.217Z,6.50
2018-10-19T06:23:52.944Z,6.60
2018-10-19T06:26:22.059Z,6.70
2018-10-19T06:28:50.911Z,6.70
2018-10-19T06:31:19.642Z,6.70
2018-10-19T06:33:48.431Z,6.70
2018-10-19T06:36:17.252Z,6.70
2018-10-19T06:38:46.306Z,6.70
2018-10-19T06:41:15.338Z,6.70
2018-10-19T06:43:44.217Z,6.60
2018-10-19T06:46:12.921Z,6.50
2018-10-19T06:48:41.731Z,6.20
2018-10-19T06:51:10.416Z,6.40
2018-10-19T06:53:39.178Z,6.50
2018-10-19T06:56:08.496Z,6.70
2018-10-19T06:58:37.222Z,6.80
2018-10-19T07:01:06.330Z,6.90
2018-10-19T07:03:35.193Z,7.00
2018-10-19T07:06:04.175Z,6.90
2018-10-19T07:08:32.876Z,7.10
2018-10-19T07:11:01.613Z,7.20
2018-10-19T07:13:30.281Z,7.30
2018-10-19T07:16:00.191Z,7.40
2018-10-19T07:18:28.818Z,7.50
2018-10-19T07:20:57.500Z,7.60
2018-10-19T07:23:26.254Z,7.60
2018-10-19T07:25:55.024Z,7.70
2018-10-19T07:28:23.807Z,7.80
2018-10-19T07:30:52.829Z,7.80
2018-10-19T07:33:21.448Z,7.80
2018-10-19T07:35:50.315Z,7.80
2018-10-19T07:38:19.066Z,7.70
2018-10-19T07:40:47.757Z,7.80
2018-10-19T07:43:16.529Z,7.50
2018-10-19T07:45:45.224Z,7.50
2018-10-19T07:48:14.176Z,7.80
2018-10-19T07:50:42.715Z,8.00
2018-10-19T07:53:11.509Z,8.10
2018-10-19T07:55:40.086Z,8.00
2018-10-19T07:58:08.819Z,8.00
2018-10-19T08:00:37.491Z,8.10
2018-10-19T08:03:06.003Z,8.30
2018-10-19T08:05:34.717Z,8.40
2018-10-19T08:08:03.316Z,8.40
2018-10-19T08:10:31.974Z,8.50
2018-10-19T08:13:00.560Z,8.60
2018-10-19T08:15:29.289Z,8.70
2018-10-19T08:17:57.922Z,8.70
2018-10-19T08:20:26.456Z,8.40
2018-10-19T08:22:55.225Z,8.70
2018-10-19T08:25:23.875Z,8.90
2018-10-19T08:27:53.022Z,9.10
2018-10-19T08:30:21.736Z,9.00
2018-10-19T08:32:50.456Z,9.00
2018-10-19T08:35:19.088Z,9.00
2018-10-19T08:37:47.748Z,9.10
2018-10-19T08:40:16.421Z,9.10
2018-10-19T08:42:45.070Z,9.20
2018-10-19T08:45:13.830Z,9.20
2018-10-19T08:47:42.558Z,9.20
2018-10-19T08:50:11.173Z,9.20
2018-10-19T08:52:39.841Z,9.20
2018-10-19T08:55:08.546Z,9.30
2018-10-19T08:57:37.291Z,9.40
2018-10-19T09:00:07.840Z,9.40
2018-10-19T09:02:36.397Z,9.40
2018-10-19T09:05:05.462Z,9.50
2018-10-19T09:07:34.338Z,9.60
2018-10-19T09:10:03.575Z,9.70
2018-10-19T09:12:32.274Z,9.80
2018-10-19T09:15:02.068Z,9.90
2018-10-19T09:17:30.637Z,10.00
2018-10-19T09:19:59.894Z,10.20
2018-10-19T09:22:28.546Z,10.30
2018-10-19T09:24:57.235Z,10.30
2018-10-19T09:27:25.938Z,10.30
2018-10-19T09:29:54.615Z,10.40
2018-10-19T09:32:23.196Z,10.50
2018-10-19T09:34:51.880Z,10.30
2018-10-19T09:37:20.461Z,10.30
2018-10-19T09:39:49.090Z,10.50
2018-10-19T09:42:17.718Z,10.80
2018-10-19T09:44:46.377Z,10.90
2018-10-19T09:47:15.149Z,10.40
2018-10-19T09:49:43.825Z,10.80
2018-10-19T09:52:12.397Z,10.90
2018-10-19T09:54:41.132Z,11.00
2018-10-19T09:57:09.859Z,11.00
2018-10-19T09:59:38.585Z,11.10
2018-10-19T10:02:07.239Z,11.40
2018-10-19T10:04:35.969Z,11.30
2018-10-19T10:07:04.880Z,11.40
2018-10-19T10:09:33.540Z,11.60
2018-10-19T10:12:02.137Z,11.40
2018-10-19T10:14:30.793Z,11.60
2018-10-19T10:16:59.452Z,11.80
2018-10-19T10:19:28.024Z,11.90
2018-10-19T10:21:56.673Z,11.90
2018-10-19T10:24:25.865Z,12.30
2018-10-19T10:26:54.558Z,12.40
2018-10-19T10:29:23.378Z,12.50
2018-10-19T10:31:52.039Z,12.50
2018-10-19T10:34:20.816Z,12.40
2018-10-19T10:36:49.503Z,12.20
2018-10-19T10:39:18.449Z,12.60
2018-10-19T10:41:46.986Z,12.80
2018-10-19T10:44:15.674Z,13.10
2018-10-19T10:46:44.216Z,13.40
2018-10-19T10:49:12.814Z,13.60
2018-10-19T10:51:41.365Z,13.80
2018-10-19T10:54:09.953Z,13.40
2018-10-19T10:56:38.587Z,13.30
2018-10-19T10:59:07.205Z,14.00
2018-10-19T11:01:35.836Z,15.20
2018-10-19T11:04:04.518Z,15.90
2018-10-19T11:06:33.190Z,16.90
2018-10-19T11:09:01.763Z,17.00
2018-10-19T11:11:30.362Z,17.60
2018-10-19T11:13:58.948Z,17.10
2018-10-19T11:16:27.645Z,18.30
2018-10-19T11:18:56.294Z,18.70
2018-10-19T11:21:24.926Z,18.90
2018-10-19T11:23:53.657Z,19.10
2018-10-19T11:26:22.206Z,19.30
2018-10-19T11:28:50.813Z,19.70
2018-10-19T11:31:19.400Z,20.00
2018-10-19T11:33:48.046Z,20.20
2018-10-19T11:36:16.760Z,20.70
2018-10-19T11:38:45.523Z,20.70
2018-10-19T11:41:14.085Z,21.00
2018-10-19T11:43:42.868Z,19.60
2018-10-19T11:46:11.623Z,21.10
2018-10-19T11:48:40.234Z,21.40
2018-10-19T11:51:08.765Z,21.50
2018-10-19T11:53:37.486Z,20.60
2018-10-19T11:56:06.954Z,21.20
2018-10-19T11:58:35.568Z,21.50
2018-10-19T12:01:04.179Z,22.50
2018-10-19T12:03:33.617Z,23.00
2018-10-19T12:06:02.170Z,23.10
2018-10-19T12:08:30.771Z,23.60
2018-10-19T12:10:59.368Z,23.90
2018-10-19T12:13:27.940Z,23.90
2018-10-19T12:15:56.590Z,24.20
2018-10-19T12:18:25.218Z,24.10
2018-10-19T12:20:53.833Z,24.30
2018-10-19T12:23:23.600Z,24.50
2018-10-19T12:25:52.295Z,25.20
2018-10-19T12:28:20.944Z,25.40
2018-10-19T12:30:49.577Z,24.70
2018-10-19T12:33:18.290Z,24.90
2018-10-19T12:35:46.901Z,24.60
2018-10-19T12:38:15.402Z,24.60
2018-10-19T12:40:44.086Z,23.90
2018-10-19T12:43:12.658Z,24.40
2018-10-19T12:46:51.414Z,25.00
2018-10-19T12:49:24.158Z,25.20
2018-10-19T12:51:52.687Z,25.60
2018-10-19T12:54:21.361Z,25.50
2018-10-19T12:56:50.056Z,25.40
2018-10-19T12:59:18.796Z,25.70
2018-10-19T13:01:47.343Z,26.00
2018-10-19T13:04:16.031Z,26.40
2018-10-19T13:06:44.590Z,26.30
2018-10-19T13:09:13.979Z,26.20
2018-10-19T13:11:43.222Z,26.40
2018-10-19T13:14:11.947Z,26.40
2018-10-19T13:16:40.614Z,26.60
2018-10-19T13:19:09.374Z,26.40
2018-10-19T13:21:38.049Z,26.30
2018-10-19T13:24:06.757Z,26.50
2018-10-19T13:26:35.518Z,26.70
2018-10-19T13:29:04.430Z,26.80
2018-10-19T13:31:33.037Z,27.00
2018-10-19T13:34:01.646Z,26.30
2018-10-19T13:36:30.313Z,26.30
2018-10-19T13:38:58.937Z,26.60
2018-10-19T13:41:27.612Z,27.00
2018-10-19T13:43:56.308Z,27.20
2018-10-19T13:46:25.029Z,26.70
2018-10-19T13:48:53.779Z,26.40
2018-10-19T13:51:22.471Z,26.80
2018-10-19T13:53:51.254Z,27.10
2018-10-19T13:56:19.809Z,27.60
2018-10-19T13:58:48.583Z,27.40
2018-10-19T14:01:17.199Z,26.90
2018-10-19T14:03:45.856Z,26.60
2018-10-19T14:06:15.103Z,26.40
2018-10-19T14:08:43.793Z,26.20
2018-10-19T14:11:12.689Z,25.60
2018-10-19T14:13:41.420Z,24.90
2018-10-19T14:16:10.174Z,24.90
2018-10-19T14:18:38.800Z,24.50
2018-10-19T14:21:07.560Z,24.60
2018-10-19T14:23:36.306Z,24.30
2018-10-19T14:26:05.001Z,24.50
2018-10-19T14:28:33.757Z,24.20
2018-10-19T14:31:02.370Z,23.50
2018-10-19T14:33:31.138Z,23.10
2018-10-19T14:35:59.614Z,22.30
2018-10-19T14:38:28.483Z,22.00
2018-10-19T14:40:57.700Z,21.70
2018-10-19T14:43:26.335Z,22.10
2018-10-19T14:45:54.981Z,22.00
2018-10-19T14:48:23.636Z,22.10
2018-10-19T14:50:52.382Z,22.10
2018-10-19T14:53:20.897Z,22.20
2018-10-19T14:55:49.640Z,22.50
2018-10-19T14:58:19.485Z,22.50
2018-10-19T15:00:48.373Z,21.50
2018-10-19T15:03:17.122Z,21.50
2018-10-19T15:05:45.617Z,21.20
2018-10-19T15:08:14.342Z,20.70
2018-10-19T15:10:43.267Z,20.40
2018-10-19T15:13:11.723Z,20.00
2018-10-19T15:15:40.302Z,19.50
2018-10-19T15:18:08.945Z,19.40
2018-10-19T15:20:37.584Z,19.00
2018-10-19T15:23:06.298Z,18.80
2018-10-19T15:25:35.041Z,18.90
2018-10-19T15:28:03.714Z,18.60
2018-10-19T15:30:32.339Z,18.50
2018-10-19T15:33:01.894Z,18.60
2018-10-19T15:35:30.494Z,18.50
2018-10-19T15:37:59.211Z,18.40
2018-10-19T15:40:27.845Z,18.30
2018-10-19T15:42:56.400Z,18.20
2018-10-19T15:45:25.254Z,18.00
2018-10-19T15:47:53.996Z,17.90
2018-10-19T15:50:22.606Z,17.80
2018-10-19T15:52:51.261Z,17.40
2018-10-19T15:55:19.865Z,17.20
2018-10-19T15:57:48.623Z,17.10
2018-10-19T16:00:17.690Z,17.00
2018-10-19T16:02:46.369Z,16.90
2018-10-19T16:05:15.080Z,16.80
2018-10-19T16:07:43.766Z,16.60
2018-10-19T16:10:12.401Z,16.50
2018-10-19T16:12:41.977Z,16.20
2018-10-19T16:15:11.456Z,16.00
2018-10-19T16:17:40.176Z,16.00
2018-10-19T16:20:09.944Z,15.90
2018-10-19T16:22:39.023Z,15.70
2018-10-19T16:25:08.465Z,15.60
2018-10-19T16:27:38.317Z,15.50
2018-10-19T16:30:08.140Z,15.30
2018-10-19T16:32:37.251Z,15.20
2018-10-19T16:35:06.157Z,15.10
2018-10-19T16:37:34.833Z,15.00
2018-10-19T16:40:03.471Z,14.80
2018-10-19T16:42:32.023Z,14.70
2018-10-19T16:45:01.467Z,14.60
2018-10-19T16:47:30.002Z,14.40
2018-10-19T16:49:58.569Z,14.40
2018-10-19T16:52:27.266Z,14.30
2018-10-19T16:54:55.677Z,14.20
2018-10-19T16:57:24.281Z,14.20
2018-10-19T16:59:53.451Z,14.20
2018-10-19T17:02:22.853Z,14.10
2018-10-19T17:04:51.500Z,14.00
2018-10-19T17:07:19.959Z,14.00
2018-10-19T17:09:48.505Z,13.90
2018-10-19T17:12:17.794Z,13.80
2018-10-19T17:14:47.204Z,13.70
2018-10-19T17:17:15.713Z,13.70
2018-10-19T17:19:44.280Z,13.60
2018-10-19T17:22:12.997Z,13.50
2018-10-19T17:24:41.761Z,13.50
2018-10-19T17:27:10.372Z,13.40
2018-10-19T17:29:38.913Z,13.40
2018-10-19T17:32:07.926Z,13.30
2018-10-19T17:34:39.755Z,13.20
2018-10-19T17:37:12.744Z,13.20
2018-10-19T17:39:46.628Z,13.10
2018-10-19T17:42:18.625Z,13.00
2018-10-19T17:44:50.612Z,12.90
2018-10-19T17:47:23.724Z,12.90
2018-10-19T17:49:58.019Z,12.80
2018-10-19T17:52:30.966Z,12.70
2018-10-19T17:55:03.609Z,12.70
2018-10-19T17:57:37.989Z,12.60
2018-10-19T18:00:08.883Z,12.50
2018-10-19T18:02:42.003Z,12.40
2018-10-19T18:05:10.753Z,12.40
2018-10-19T18:07:40.004Z,12.30
2018-10-19T18:10:08.593Z,12.30
2018-10-19T18:12:38.188Z,12.20
2018-10-19T18:15:06.794Z,12.20
2018-10-19T18:17:35.803Z,12.10
2018-10-19T18:20:04.391Z,12.00
2018-10-19T18:22:33.182Z,12.00
2018-10-19T18:25:02.214Z,11.90
2018-10-19T18:27:30.789Z,11.90
2018-10-19T18:30:00.015Z,11.80
2018-10-19T18:32:32.338Z,11.80
2018-10-19T18:35:04.844Z,11.70
2018-10-19T18:37:36.103Z,11.60
2018-10-19T18:40:07.599Z,11.60
2018-10-19T18:42:36.434Z,11.50
2018-10-19T18:45:06.459Z,11.40
2018-10-19T18:47:35.277Z,11.40
2018-10-19T18:50:04.187Z,11.30
2018-10-19T18:52:32.858Z,11.30
2018-10-19T18:55:01.802Z,11.20
2018-10-19T18:57:30.898Z,11.10
2018-10-19T18:59:59.474Z,11.00
2018-10-19T19:02:28.263Z,11.00
2018-10-19T19:04:57.289Z,11.00
2018-10-19T19:07:25.905Z,10.90
2018-10-19T19:10:00.141Z,10.80
2018-10-19T19:12:28.839Z,10.80
2018-10-19T19:14:57.700Z,10.70
2018-10-19T19:17:27.177Z,10.70
2018-10-19T19:20:01.193Z,10.70
2018-10-19T19:22:30.559Z,10.60
2018-10-19T19:25:04.436Z,10.50
2018-10-19T19:27:32.966Z,10.50
2018-10-19T19:30:01.513Z,10.40
2018-10-19T19:32:30.085Z,10.40
2018-10-19T19:34:59.751Z,10.30
2018-10-19T19:37:28.306Z,10.30
2018-10-19T19:39:57.018Z,10.30
2018-10-19T19:42:30.739Z,10.20
2018-10-19T19:45:01.010Z,10.20
2018-10-19T19:47:34.768Z,10.10
2018-10-19T19:50:05.709Z,10.00
2018-10-19T19:52:34.352Z,10.00
2018-10-19T19:55:04.854Z,10.00
2018-10-19T19:57:33.441Z,9.90
2018-10-19T20:00:04.474Z,9.80
2018-10-19T20:02:33.477Z,9.80
2018-10-19T20:05:02.228Z,9.70
2018-10-19T20:07:30.768Z,9.70
2018-10-19T20:10:00.367Z,9.70
2018-10-19T20:12:28.954Z,9.70
2018-10-19T20:15:00.214Z,9.60
2018-10-19T20:17:28.835Z,9.50
2018-10-19T20:19:57.428Z,9.50
2018-10-19T20:22:26.464Z,9.50
2018-10-19T20:24:55.080Z,9.40
2018-10-19T20:27:24.621Z,9.30
2018-10-19T20:29:54.785Z,9.30
2018-10-19T20:32:23.471Z,9.20
2018-10-19T20:34:56.712Z,9.10
2018-10-19T20:37:25.794Z,9.10
2018-10-19T20:39:54.686Z,9.10
2018-10-19T20:42:24.951Z,9.00
2018-10-19T20:44:53.592Z,9.00
2018-10-19T20:47:27.246Z,8.90
2018-10-19T20:49:58.131Z,8.90
2018-10-19T20:52:26.789Z,8.80
2018-10-19T20:54:59.775Z,8.70
2018-10-19T20:57:28.384Z,8.70
2018-10-19T20:59:57.014Z,8.70
2018-10-19T21:02:25.584Z,8.60
2018-10-19T21:04:54.218Z,8.50
2018-10-19T21:07:22.813Z,8.50
2018-10-19T21:09:51.399Z,8.40
2018-10-19T21:12:20.030Z,8.40
2018-10-19T21:14:48.741Z,8.30
2018-10-19T21:17:17.605Z,8.30
2018-10-19T21:19:46.164Z,8.30
2018-10-19T21:22:14.759Z,8.20
2018-10-19T21:24:43.272Z,8.20
2018-10-19T21:27:11.813Z,8.20
2018-10-19T21:29:40.361Z,8.20
2018-10-19T21:32:09.419Z,8.10
2018-10-19T21:34:37.981Z,8.00
2018-10-19T21:37:07.163Z,8.00
2018-10-19T21:39:35.713Z,7.90
2018-10-19T21:42:04.294Z,7.90
2018-10-19T21:44:32.933Z,7.80
2018-10-19T21:47:02.121Z,7.80
2018-10-19T21:49:30.589Z,7.80
2018-10-19T21:51:59.149Z,7.80
2018-10-19T21:54:27.694Z,7.70
2018-10-19T21:56:56.261Z,7.60
2018-10-19T21:59:24.835Z,7.60
2018-10-19T22:01:56.451Z,7.50
2018-10-19T22:04:25.210Z,7.50
2018-10-19T22:06:55.304Z,7.50
2018-10-19T22:09:23.937Z,7.40
2018-10-19T22:11:53.492Z,7.40
2018-10-19T22:14:22.234Z,7.40
2018-10-19T22:16:50.767Z,7.30
2018-10-19T22:19:19.337Z,7.30
2018-10-19T22:21:47.861Z,7.30
2018-10-19T22:24:17.162Z,7.30
2018-10-19T22:26:45.909Z,7.20
2018-10-19T22:29:14.569Z,7.30
2018-10-19T22:31:43.011Z,7.20
2018-10-19T22:34:11.526Z,7.10
2018-10-19T22:36:40.511Z,7.10
2018-10-19T22:39:09.057Z,7.00
2018-10-19T22:41:37.833Z,7.00
2018-10-19T22:44:06.456Z,7.00
2018-10-19T22:46:35.005Z,7.10
2018-10-19T22:49:03.566Z,7.10
2018-10-19T22:51:32.166Z,7.10
2018-10-19T22:54:00.686Z,7.20
2018-10-19T22:56:29.266Z,7.20
2018-10-19T22:58:57.800Z,7.30
2018-10-19T23:01:26.305Z,7.30
2018-10-19T23:03:55.519Z,7.30
2018-10-19T23:06:24.058Z,7.40
2018-10-19T23:08:53.600Z,7.70
2018-10-19T23:11:22.261Z,7.80
2018-10-19T23:13:50.994Z,7.80
2018-10-19T23:16:19.688Z,7.90
2018-10-19T23:18:48.224Z,7.90
2018-10-19T23:21:16.811Z,7.90
2018-10-19T23:23:45.318Z,7.90
2018-10-19T23:26:13.809Z,8.00
2018-10-19T23:28:43.225Z,8.10
2018-10-19T23:31:11.787Z,8.10
2018-10-19T23:33:40.305Z,8.10
2018-10-19T23:36:08.842Z,8.10
2018-10-19T23:38:37.368Z,8.20
2018-10-19T23:41:06.001Z,8.30
2018-10-19T23:43:34.482Z,8.40
2018-10-19T23:46:03.664Z,8.40
2018-10-19T23:48:32.163Z,8.40
2018-10-19T23:51:01.081Z,8.30
2018-10-19T23:53:29.623Z,8.40
2018-10-19T23:55:58.162Z,8.30
2018-10-19T23:58:26.713Z,8.30
